Des Moines, IA (50311)

7:45 AM CST on December 20, 2014 (GMT -0600)
Windsor Heights / Glendale | Change Station
CLOSE
Current Station
Personal Weather Station
Location: Des Moines, IA
Elevation: 965 ft
Nearby Weather Stations
Active Advisory: Special Statement

Elev 965 ft 41.61 °N, 93.70 °W | Updated 4 seconds ago

Overcast
Overcast
30.7 °F
Feels Like 31 °F
N
0.0
Wind Variable Wind from SSE
Gusts 0.0 mph

Today
High -- | Low -- °F
--% Chance of Precip.
Yesterday
High -- | Low -- °F
Precip. -- in
7:37 AM 4:47 PM
Waning Crescent, 3% visible
Pressure 30.20 in
Visibility 8.0 miles
Clouds Scattered Clouds 1000 ft
Overcast 1700 ft
Windchill 31 °F
Dew Point 29 °F
Humidity 95%
Rainfall 0.00 in
Snow Depth Not available.
UV 0.0 out of 12
Pollen .10 out of 12
Air Quality Not available.
Flu Activity Not available.
METAR KDSM 201254Z 17003KT 8SM SCT010 OVC017 00/M02 A3017 RMK AO2 FZDZB34E52SNE08 SLP227 P0000 I1000 T00001022

More Conditions Fewer Conditions

Pressure 30.20 in
Visibility 8.0 miles
Clouds Scattered Clouds 1000 ft
Overcast 1700 ft
Windchill 31 °F
Dew Point 29 °F
Humidity 95%
Rainfall 0.00 in
Snow Depth Not available.
UV 0.0 out of 12
Pollen .10 out of 12
Air Quality Not available.
Flu Activity Not available.
METAR KDSM 201254Z 17003KT 8SM SCT010 OVC017 00/M02 A3017 RMK AO2 FZDZB34E52SNE08 SLP227 P0000 I1000 T00001022

More Conditions Fewer Conditions

10-Day Weather Forecast

Almanac

Astronomy

Dec. 20, 2014 Rise Set
Actual Time
Civil Twilight
Nautical Twilight
Astronomical Twilight
Moon
Length of Visible Light
Length of Day
Tomorrow will be .
, % of the Moon is Illuminated

Today's Extremes

State Highs State Lows

Community

WunderPhotos

Upload Photos

1,779,171 photos uploaded!

WunderBlogs® & News

Nearby

Air Quality

  Air Quality AQ Index Pollutant
Not available.

Snow Depth

Station Depth Elevation

Earthquake Activity

City Distance Mag. Time & Date
Minimum magnitude displayed is 2.5.

Coastal Water Temperatures

Place Temperature

Nearby Weather Stations